createdAt,value
2018-01-24T00:01:23.453Z,7.50
2018-01-24T00:03:51.066Z,7.40
2018-01-24T00:06:19.218Z,7.60
2018-01-24T00:08:46.876Z,7.50
2018-01-24T00:11:14.492Z,7.40
2018-01-24T00:13:43.102Z,7.50
2018-01-24T00:16:11.521Z,7.50
2018-01-24T00:18:39.140Z,7.70
2018-01-24T00:21:06.789Z,8.10
2018-01-24T00:23:34.409Z,7.80
2018-01-24T00:26:02.835Z,8.10
2018-01-24T00:28:30.477Z,7.90
2018-01-24T00:30:58.137Z,8.00
2018-01-24T00:33:25.754Z,7.90
2018-01-24T00:35:53.404Z,8.10
2018-01-24T00:38:21.097Z,8.10
2018-01-24T00:40:48.758Z,8.40
2018-01-24T00:43:17.150Z,8.10
2018-01-24T00:45:44.858Z,8.30
2018-01-24T00:48:13.102Z,8.30
2018-01-24T00:50:40.754Z,8.30
2018-01-24T00:53:08.372Z,8.30
2018-01-24T00:55:36.583Z,8.20
2018-01-24T00:58:04.235Z,8.10
2018-01-24T01:00:31.895Z,8.50
2018-01-24T01:02:59.549Z,8.20
2018-01-24T01:05:27.213Z,8.50
2018-01-24T01:07:55.096Z,8.20
2018-01-24T01:10:22.717Z,8.20
2018-01-24T01:12:51.094Z,8.30
2018-01-24T01:15:18.745Z,8.40
2018-01-24T01:17:46.398Z,8.50
2018-01-24T01:20:14.077Z,8.30
2018-01-24T01:22:41.693Z,8.30
2018-01-24T01:25:09.308Z,8.50
2018-01-24T01:27:36.960Z,8.80
2018-01-24T01:30:04.621Z,8.50
2018-01-24T01:32:32.897Z,8.50
2018-01-24T01:35:00.553Z,8.90
2018-01-24T01:37:28.169Z,8.60
2018-01-24T01:39:56.129Z,8.50
2018-01-24T01:42:23.743Z,8.50
2018-01-24T01:44:52.171Z,8.90
2018-01-24T01:47:19.977Z,8.50
2018-01-24T01:49:47.653Z,8.50
2018-01-24T01:52:16.032Z,8.50
2018-01-24T01:54:43.662Z,8.70
2018-01-24T01:57:11.517Z,8.70
2018-01-24T01:59:39.184Z,8.70
2018-01-24T02:02:07.011Z,8.70
2018-01-24T02:04:34.678Z,8.70
2018-01-24T02:07:02.339Z,8.70
2018-01-24T02:09:30.001Z,8.80
2018-01-24T02:11:57.612Z,9.00
2018-01-24T02:14:25.271Z,8.70
2018-01-24T02:16:53.651Z,8.70
2018-01-24T02:19:22.097Z,9.20
2018-01-24T02:21:49.720Z,9.10
2018-01-24T02:24:17.385Z,9.20
2018-01-24T02:26:45.037Z,9.30
2018-01-24T02:29:12.654Z,8.90
2018-01-24T02:31:41.424Z,9.00
2018-01-24T02:34:09.042Z,8.90
2018-01-24T02:36:37.390Z,8.80
2018-01-24T02:39:16.877Z,9.20
2018-01-24T02:41:44.536Z,9.30
2018-01-24T02:44:12.152Z,9.30
2018-01-24T02:46:39.812Z,9.30
2018-01-24T02:49:07.426Z,8.90
2018-01-24T02:51:35.056Z,9.20
2018-01-24T02:54:03.264Z,8.90
2018-01-24T02:56:31.248Z,9.00
2018-01-24T02:58:59.183Z,9.10
2018-01-24T03:01:28.902Z,8.90
2018-01-24T03:03:56.552Z,9.20
2018-01-24T03:06:24.520Z,9.00
2018-01-24T03:08:52.187Z,9.10
2018-01-24T03:11:19.817Z,9.30
2018-01-24T03:13:47.482Z,9.20
2018-01-24T03:16:15.717Z,9.00
2018-01-24T03:18:43.933Z,9.10
2018-01-24T03:21:11.729Z,9.60
2018-01-24T03:23:39.348Z,8.90
2018-01-24T03:26:07.001Z,9.00
2018-01-24T03:28:34.614Z,9.40
2018-01-24T03:31:03.791Z,9.20
2018-01-24T03:33:31.404Z,9.40
2018-01-24T03:35:59.056Z,9.20
2018-01-24T03:38:27.660Z,9.20
2018-01-24T03:40:55.381Z,9.10
2018-01-24T03:43:23.049Z,9.00
2018-01-24T03:45:51.485Z,9.50
2018-01-24T03:48:19.336Z,9.50
2018-01-24T03:50:46.973Z,9.60
2018-01-24T03:53:14.585Z,9.50
2018-01-24T03:55:42.238Z,9.50
2018-01-24T03:58:09.862Z,9.40
2018-01-24T04:00:37.530Z,9.70
2018-01-24T04:03:05.200Z,9.20
2018-01-24T04:05:32.813Z,9.30
2018-01-24T04:08:00.469Z,9.50
2018-01-24T04:10:28.121Z,9.60
2018-01-24T04:13:07.521Z,9.60
2018-01-24T04:15:36.061Z,9.50
2018-01-24T04:18:04.708Z,9.20
2018-01-24T04:20:32.534Z,9.40
2018-01-24T04:23:01.046Z,9.50
2018-01-24T04:25:28.717Z,9.60
2018-01-24T04:27:56.928Z,9.50
2018-01-24T04:30:24.556Z,9.40
2018-01-24T04:32:53.219Z,9.30
2018-01-24T04:35:20.988Z,9.40
2018-01-24T04:37:48.709Z,9.70
2018-01-24T04:40:16.357Z,9.50
2018-01-24T04:42:44.012Z,9.50
2018-01-24T04:45:11.860Z,9.50
2018-01-24T04:47:39.520Z,9.50
2018-01-24T04:50:07.149Z,9.50
2018-01-24T04:52:35.015Z,9.50
2018-01-24T04:55:02.633Z,9.50
2018-01-24T04:57:30.397Z,9.50
2018-01-24T04:59:58.029Z,9.50
2018-01-24T05:02:25.702Z,9.60
2018-01-24T05:04:54.354Z,9.70
2018-01-24T05:07:22.022Z,9.70
2018-01-24T05:09:49.689Z,9.30
2018-01-24T05:12:17.423Z,9.60
2018-01-24T05:14:45.105Z,9.30
2018-01-24T05:17:12.737Z,9.60
2018-01-24T05:19:40.481Z,9.70
2018-01-24T05:22:08.112Z,9.70
2018-01-24T05:24:36.640Z,9.50
2018-01-24T05:27:04.529Z,9.60
2018-01-24T05:29:32.956Z,9.60
2018-01-24T05:32:00.683Z,9.40
2018-01-24T05:34:28.434Z,9.70
2018-01-24T05:36:56.049Z,9.70
2018-01-24T05:39:23.700Z,9.40
2018-01-24T05:41:51.664Z,9.70
2018-01-24T05:44:19.570Z,9.70
2018-01-24T05:46:47.216Z,9.40
2018-01-24T05:49:14.838Z,9.30
2018-01-24T05:51:43.281Z,9.30
2018-01-24T05:54:10.941Z,9.60
2018-01-24T05:56:38.600Z,9.30
2018-01-24T05:59:06.364Z,9.50
2018-01-24T06:01:34.016Z,9.60
2018-01-24T06:04:01.673Z,9.40
2018-01-24T06:06:29.316Z,9.70
2018-01-24T06:08:57.196Z,9.70
2018-01-24T06:11:24.810Z,9.70
2018-01-24T06:13:52.644Z,9.50
2018-01-24T06:16:20.966Z,9.50
2018-01-24T06:18:48.634Z,9.50
2018-01-24T06:21:16.357Z,9.50
2018-01-24T06:23:44.590Z,9.60
2018-01-24T06:26:12.241Z,9.30
2018-01-24T06:28:39.863Z,9.60
2018-01-24T06:31:08.310Z,9.60
2018-01-24T06:33:36.749Z,9.40
2018-01-24T06:36:05.039Z,9.40
2018-01-24T06:38:37.576Z,9.30
2018-01-24T06:41:11.043Z,9.20
2018-01-24T06:43:39.048Z,9.20
2018-01-24T06:46:06.852Z,9.30
2018-01-24T06:48:34.616Z,9.60
2018-01-24T06:51:02.599Z,9.50
2018-01-24T06:53:30.443Z,9.50
2018-01-24T06:55:58.063Z,9.60
2018-01-24T06:58:25.744Z,9.70
2018-01-24T07:00:53.385Z,9.30
2018-01-24T07:03:21.016Z,9.60
2018-01-24T07:05:48.671Z,9.70
2018-01-24T07:08:17.277Z,9.30
2018-01-24T07:10:45.692Z,9.70
2018-01-24T07:13:25.755Z,9.40
2018-01-24T07:15:53.413Z,9.60
2018-01-24T07:18:21.192Z,9.30
2018-01-24T07:20:49.453Z,9.50
2018-01-24T07:23:17.337Z,9.60
2018-01-24T07:25:44.949Z,9.30
2018-01-24T07:28:12.602Z,9.60
2018-01-24T07:30:40.216Z,9.40
2018-01-24T07:33:08.064Z,9.30
2018-01-24T07:35:35.847Z,9.60
2018-01-24T07:38:03.689Z,9.40
2018-01-24T07:40:31.317Z,9.80
2018-01-24T07:42:58.999Z,9.80
2018-01-24T07:45:26.843Z,10.00
2018-01-24T07:47:54.646Z,10.00
2018-01-24T07:50:22.262Z,10.10
2018-01-24T07:52:49.930Z,9.80
2018-01-24T07:55:17.722Z,10.00
2018-01-24T07:57:45.388Z,10.10
2018-01-24T08:00:13.004Z,9.80
2018-01-24T08:02:40.669Z,10.00
2018-01-24T08:05:08.295Z,9.90
2018-01-24T08:07:36.890Z,9.90
2018-01-24T08:10:04.512Z,9.90
2018-01-24T08:12:32.150Z,9.90
2018-01-24T08:14:59.815Z,10.10
2018-01-24T08:17:27.429Z,9.70
2018-01-24T08:19:55.277Z,10.00
2018-01-24T08:22:22.894Z,9.90
2018-01-24T08:24:50.551Z,9.90
2018-01-24T08:27:18.175Z,9.80
2018-01-24T08:29:45.833Z,10.50
2018-01-24T08:32:14.271Z,10.10
2018-01-24T08:34:42.153Z,10.00
2018-01-24T08:37:09.829Z,10.20
2018-01-24T08:39:37.451Z,10.40
2018-01-24T08:42:05.076Z,10.40
2018-01-24T08:44:32.746Z,10.40
2018-01-24T08:47:00.432Z,10.40
2018-01-24T08:49:28.096Z,10.40
2018-01-24T08:51:55.722Z,10.20
2018-01-24T08:54:23.383Z,10.40
2018-01-24T08:56:51.066Z,10.40
2018-01-24T08:59:18.724Z,10.40
2018-01-24T09:01:46.401Z,10.40
2018-01-24T09:04:14.065Z,10.40
2018-01-24T09:06:41.689Z,10.40
2018-01-24T09:09:09.359Z,10.30
2018-01-24T09:11:36.984Z,10.20
2018-01-24T09:14:05.210Z,10.50
2018-01-24T09:16:32.869Z,10.80
2018-01-24T09:19:00.492Z,10.60
2018-01-24T09:21:28.148Z,10.50
2018-01-24T09:23:56.573Z,10.80
2018-01-24T09:26:24.638Z,10.70
2018-01-24T09:28:52.518Z,10.80
2018-01-24T09:31:20.440Z,10.80
2018-01-24T09:33:48.861Z,10.80
2018-01-24T09:36:16.529Z,10.20
2018-01-24T09:38:44.189Z,10.70
2018-01-24T09:41:11.811Z,10.90
2018-01-24T09:43:39.464Z,10.70
2018-01-24T09:46:07.087Z,10.80
2018-01-24T09:48:34.762Z,10.80
2018-01-24T09:51:03.150Z,10.90
2018-01-24T09:53:30.781Z,10.80
2018-01-24T09:55:58.630Z,10.80
2018-01-24T09:58:26.249Z,10.80
2018-01-24T10:00:53.929Z,10.80
2018-01-24T10:03:21.558Z,10.90
2018-01-24T10:05:49.212Z,10.70
2018-01-24T10:08:16.860Z,10.80
2018-01-24T10:10:44.575Z,10.90
2018-01-24T10:13:12.197Z,10.80
2018-01-24T10:15:40.021Z,10.80
2018-01-24T10:18:07.645Z,11.20
2018-01-24T10:20:36.781Z,11.20
2018-01-24T10:23:04.438Z,11.00
2018-01-24T10:25:32.074Z,10.80
2018-01-24T10:28:00.063Z,10.90
2018-01-24T10:30:28.293Z,11.30
2018-01-24T10:32:55.953Z,11.10
2018-01-24T10:35:23.568Z,11.30
2018-01-24T10:37:51.261Z,11.20
2018-01-24T10:40:18.878Z,11.10
2018-01-24T10:42:46.858Z,11.00
2018-01-24T10:45:14.481Z,11.10
2018-01-24T10:47:42.172Z,11.10
2018-01-24T10:50:09.801Z,11.00
2018-01-24T10:52:37.424Z,11.30
2018-01-24T10:55:05.851Z,11.20
2018-01-24T10:57:33.521Z,11.60
2018-01-24T11:00:01.873Z,11.60
2018-01-24T11:02:30.063Z,11.50
2018-01-24T11:04:57.721Z,11.50
2018-01-24T11:07:25.940Z,11.70
2018-01-24T11:09:53.549Z,11.40
2018-01-24T11:12:21.210Z,11.70
2018-01-24T11:14:48.870Z,11.60
2018-01-24T11:17:16.504Z,11.40
2018-01-24T11:19:44.153Z,11.90
2018-01-24T11:22:11.841Z,11.60
2018-01-24T11:24:39.489Z,11.70
2018-01-24T11:27:07.109Z,11.60
2018-01-24T11:29:35.124Z,11.70
2018-01-24T11:32:02.750Z,11.60
2018-01-24T11:34:31.429Z,11.30
2018-01-24T11:36:59.058Z,12.00
2018-01-24T11:39:26.674Z,11.80
2018-01-24T11:41:54.338Z,11.80
2018-01-24T11:44:21.973Z,11.70
2018-01-24T11:46:51.112Z,11.80
2018-01-24T11:49:18.738Z,12.00
2018-01-24T11:51:46.402Z,11.60
2018-01-24T11:54:14.021Z,11.50
2018-01-24T11:56:41.759Z,11.50
2018-01-24T11:59:09.379Z,11.60
2018-01-24T12:01:37.196Z,11.60
2018-01-24T12:04:05.163Z,11.50
2018-01-24T12:06:32.776Z,11.80
2018-01-24T12:09:00.393Z,11.60
2018-01-24T12:11:29.567Z,11.80
2018-01-24T12:13:57.242Z,11.90
2018-01-24T12:16:24.870Z,11.60
2018-01-24T12:18:52.521Z,11.90
2018-01-24T12:21:20.777Z,11.50
2018-01-24T12:23:48.448Z,11.60
2018-01-24T12:26:16.060Z,11.60
2018-01-24T12:28:43.713Z,11.80
2018-01-24T12:31:11.933Z,11.70
2018-01-24T12:33:40.273Z,12.00
2018-01-24T12:36:07.936Z,12.20
2018-01-24T12:38:35.602Z,12.00
2018-01-24T12:41:03.331Z,11.80
2018-01-24T12:43:30.949Z,12.00
2018-01-24T12:45:58.566Z,11.90
2018-01-24T12:48:26.232Z,11.90
2018-01-24T12:50:53.924Z,12.00
2018-01-24T12:53:21.561Z,12.20
2018-01-24T12:55:49.181Z,12.10
2018-01-24T12:58:28.733Z,12.10
2018-01-24T13:00:56.353Z,12.00
2018-01-24T13:03:24.124Z,11.80
2018-01-24T13:05:51.736Z,12.10
2018-01-24T13:08:19.397Z,12.10
2018-01-24T13:10:47.013Z,12.00
2018-01-24T13:13:14.921Z,12.00
2018-01-24T13:15:42.676Z,11.90
2018-01-24T13:18:10.346Z,11.90
2018-01-24T13:20:37.992Z,12.00
2018-01-24T13:23:05.661Z,12.20
2018-01-24T13:25:33.453Z,12.00
2018-01-24T13:28:01.842Z,12.00
2018-01-24T13:30:31.174Z,12.00
2018-01-24T13:32:58.786Z,11.90
2018-01-24T13:35:26.622Z,12.00
2018-01-24T13:37:54.283Z,11.90
2018-01-24T13:40:21.904Z,12.00
2018-01-24T13:42:49.602Z,12.10
2018-01-24T13:45:17.221Z,12.10
2018-01-24T13:47:44.873Z,11.90
2018-01-24T13:50:12.489Z,11.90
2018-01-24T13:52:40.169Z,11.90
2018-01-24T13:55:07.789Z,12.00
2018-01-24T13:57:35.404Z,12.20
2018-01-24T14:00:03.071Z,12.10
2018-01-24T14:02:31.401Z,11.90
2018-01-24T14:04:59.033Z,12.10
2018-01-24T14:07:26.645Z,11.90
2018-01-24T14:09:55.297Z,12.00
2018-01-24T14:12:23.865Z,11.70
2018-01-24T14:14:51.536Z,12.00
2018-01-24T14:17:19.204Z,12.10
2018-01-24T14:19:48.105Z,12.00
2018-01-24T14:22:15.724Z,12.30
2018-01-24T14:24:43.745Z,12.00
2018-01-24T14:27:12.141Z,12.20
2018-01-24T14:29:40.523Z,12.00
2018-01-24T14:32:08.178Z,12.00
2018-01-24T14:34:35.838Z,12.20
2018-01-24T14:37:03.456Z,12.10
2018-01-24T14:39:31.221Z,12.00
2018-01-24T14:41:58.878Z,12.10
2018-01-24T14:44:26.490Z,12.10
2018-01-24T14:46:54.132Z,12.00
2018-01-24T14:49:21.961Z,12.00
2018-01-24T14:51:49.798Z,12.20
2018-01-24T14:54:17.430Z,12.20
2018-01-24T14:56:45.066Z,12.00
2018-01-24T14:59:12.726Z,12.00
2018-01-24T15:01:40.958Z,12.30
2018-01-24T15:04:08.620Z,12.70
2018-01-24T15:06:36.580Z,12.30
2018-01-24T15:09:04.327Z,12.70
2018-01-24T15:11:31.941Z,12.60
2018-01-24T15:14:00.334Z,12.60
2018-01-24T15:16:27.989Z,12.50
2018-01-24T15:18:55.643Z,12.60
2018-01-24T15:21:23.297Z,12.10
2018-01-24T15:23:50.945Z,12.10
2018-01-24T15:26:18.591Z,12.30
2018-01-24T15:28:46.202Z,12.50
2018-01-24T15:31:14.627Z,12.40
2018-01-24T15:33:42.277Z,12.10
2018-01-24T15:36:09.933Z,12.60
2018-01-24T15:38:37.611Z,12.70
2018-01-24T15:41:05.267Z,12.00
2018-01-24T15:43:32.889Z,12.10
2018-01-24T15:46:00.594Z,12.00
2018-01-24T15:48:28.252Z,12.00
2018-01-24T15:50:55.885Z,12.10
2018-01-24T15:53:23.536Z,12.10
2018-01-24T15:55:51.909Z,12.00
2018-01-24T15:58:20.336Z,12.00
2018-01-24T16:00:48.005Z,12.40
2018-01-24T16:03:16.361Z,12.00
2018-01-24T16:05:43.982Z,12.10
2018-01-24T16:08:12.610Z,12.00
2018-01-24T16:10:40.681Z,12.00
2018-01-24T16:13:08.300Z,12.00
2018-01-24T16:15:35.922Z,12.10
2018-01-24T16:18:03.624Z,12.00
2018-01-24T16:20:31.610Z,12.00
2018-01-24T16:22:59.226Z,12.10
2018-01-24T16:25:27.796Z,12.00
2018-01-24T16:27:55.408Z,12.40
2018-01-24T16:30:23.793Z,12.00
2018-01-24T16:32:51.412Z,12.10
2018-01-24T16:35:19.793Z,12.40
2018-01-24T16:37:48.200Z,12.70
2018-01-24T16:40:15.878Z,12.20
2018-01-24T16:42:43.661Z,12.40
2018-01-24T16:45:11.346Z,12.40
2018-01-24T16:47:39.004Z,12.70
2018-01-24T16:50:06.612Z,12.40
2018-01-24T16:52:34.233Z,12.80
2018-01-24T16:55:01.900Z,12.70
2018-01-24T16:57:29.522Z,12.80
2018-01-24T16:59:57.174Z,12.80
2018-01-24T17:02:24.825Z,12.50
2018-01-24T17:04:52.473Z,12.80
2018-01-24T17:07:20.085Z,12.70
2018-01-24T17:09:48.504Z,12.50
2018-01-24T17:12:16.121Z,12.80
2018-01-24T17:14:44.233Z,12.80
2018-01-24T17:17:13.041Z,12.50
2018-01-24T17:19:40.773Z,12.70
2018-01-24T17:22:08.418Z,12.80
2018-01-24T17:24:36.253Z,12.80
2018-01-24T17:27:03.885Z,12.50
2018-01-24T17:29:31.536Z,12.50
2018-01-24T17:31:59.225Z,12.50
2018-01-24T17:34:27.067Z,12.70
2018-01-24T17:37:00.055Z,12.40
2018-01-24T17:39:29.724Z,12.80
2018-01-24T17:41:58.240Z,12.30
2018-01-24T17:44:26.059Z,12.50
2018-01-24T17:46:54.492Z,12.70
2018-01-24T17:49:22.250Z,12.80
2018-01-24T17:51:49.905Z,12.60
2018-01-24T17:54:17.561Z,12.70
2018-01-24T17:56:45.212Z,12.40
2018-01-24T17:59:13.555Z,12.40
2018-01-24T18:01:42.005Z,12.50
2018-01-24T18:04:09.621Z,12.80
2018-01-24T18:06:37.876Z,12.70
2018-01-24T18:09:05.941Z,12.80
2018-01-24T18:11:34.317Z,12.50
2018-01-24T18:14:02.033Z,12.90
2018-01-24T18:16:29.681Z,12.50
2018-01-24T18:18:57.477Z,13.10
2018-01-24T18:21:25.318Z,12.80
2018-01-24T18:23:52.977Z,12.60
2018-01-24T18:26:20.593Z,13.10
2018-01-24T18:28:48.613Z,13.10
2018-01-24T18:31:16.238Z,13.00
2018-01-24T18:33:43.900Z,13.20
2018-01-24T18:36:11.513Z,12.80
2018-01-24T18:38:39.169Z,13.10
2018-01-24T18:41:07.038Z,12.90
2018-01-24T18:43:34.663Z,13.00
2018-01-24T18:46:02.553Z,13.00
2018-01-24T18:48:31.553Z,12.80
2018-01-24T18:50:59.907Z,13.10
2018-01-24T18:53:28.078Z,12.60
2018-01-24T18:55:58.160Z,12.80
2018-01-24T18:58:27.096Z,13.20
2018-01-24T19:00:58.130Z,13.20
2018-01-24T19:03:25.792Z,12.50
2018-01-24T19:05:53.638Z,12.50
2018-01-24T19:08:22.212Z,13.20
2018-01-24T19:10:50.451Z,12.50
2018-01-24T19:13:18.097Z,13.10
2018-01-24T19:15:45.932Z,12.80
2018-01-24T19:18:13.570Z,12.90
2018-01-24T19:20:41.417Z,12.50
2018-01-24T19:23:09.658Z,13.10
2018-01-24T19:25:37.601Z,12.50
2018-01-24T19:28:05.793Z,13.10
2018-01-24T19:30:34.632Z,12.70
2018-01-24T19:33:03.321Z,12.60
2018-01-24T19:35:31.284Z,12.50
2018-01-24T19:37:59.792Z,12.50
2018-01-24T19:40:27.799Z,12.80
2018-01-24T19:42:59.299Z,12.80
2018-01-24T19:45:27.521Z,12.90
2018-01-24T19:47:55.189Z,12.50
2018-01-24T19:50:24.385Z,12.70
2018-01-24T19:52:52.821Z,12.40
2018-01-24T19:55:20.497Z,12.50
2018-01-24T19:57:48.157Z,12.50
2018-01-24T20:00:15.821Z,12.40
2018-01-24T20:02:44.294Z,12.50
2018-01-24T20:05:12.251Z,12.50
2018-01-24T20:07:40.479Z,12.70
2018-01-24T20:10:08.864Z,12.50
2018-01-24T20:12:36.530Z,12.50
2018-01-24T20:15:04.341Z,12.40
2018-01-24T20:17:31.980Z,12.40
2018-01-24T20:20:00.052Z,12.70
2018-01-24T20:22:27.712Z,12.40
2018-01-24T20:24:55.356Z,12.40
2018-01-24T20:27:23.322Z,12.40
2018-01-24T20:29:51.461Z,12.50
2018-01-24T20:32:19.892Z,12.80
2018-01-24T20:34:48.205Z,12.70
2018-01-24T20:37:17.891Z,12.40
2018-01-24T20:39:45.594Z,12.70
2018-01-24T20:42:14.173Z,12.30
2018-01-24T20:44:43.762Z,12.40
2018-01-24T20:47:12.419Z,12.30
2018-01-24T20:49:40.617Z,12.10
2018-01-24T20:52:08.230Z,12.60
2018-01-24T20:54:36.110Z,12.40
2018-01-24T20:57:04.309Z,12.30
2018-01-24T20:59:31.960Z,12.40
2018-01-24T21:01:59.645Z,12.50
2018-01-24T21:04:28.030Z,12.40
2018-01-24T21:06:56.455Z,12.40
2018-01-24T21:09:24.311Z,12.10
2018-01-24T21:11:51.964Z,12.40
2018-01-24T21:14:20.056Z,12.70
2018-01-24T21:16:47.677Z,12.60
2018-01-24T21:19:15.952Z,12.40
2018-01-24T21:21:45.166Z,12.30
2018-01-24T21:24:12.828Z,12.40
2018-01-24T21:26:40.510Z,12.40
2018-01-24T21:29:29.700Z,12.30
2018-01-24T21:32:12.038Z,12.30
2018-01-24T21:34:51.533Z,12.30
2018-01-24T21:37:19.185Z,12.40
2018-01-24T21:39:46.828Z,12.40
2018-01-24T21:42:14.444Z,12.00
2018-01-24T21:44:42.328Z,12.50
2018-01-24T21:47:09.970Z,12.00
2018-01-24T21:49:37.879Z,12.30
2018-01-24T21:52:05.530Z,12.50
2018-01-24T21:54:33.316Z,12.60
2018-01-24T21:57:00.962Z,12.50
2018-01-24T21:59:28.663Z,12.40
2018-01-24T22:01:56.696Z,12.40
2018-01-24T22:04:24.478Z,12.40
2018-01-24T22:06:53.142Z,12.40
2018-01-24T22:09:20.909Z,12.10
2018-01-24T22:11:48.977Z,12.40
2018-01-24T22:14:16.738Z,12.30
2018-01-24T22:16:44.501Z,12.40
2018-01-24T22:19:12.158Z,12.20
2018-01-24T22:21:39.940Z,11.60
2018-01-24T22:24:07.715Z,10.90
2018-01-24T22:26:35.353Z,10.10
2018-01-24T22:29:03.236Z,10.00
2018-01-24T22:31:30.838Z,9.60
2018-01-24T22:33:58.477Z,9.40
2018-01-24T22:36:26.092Z,9.00
2018-01-24T22:38:53.766Z,9.20
2018-01-24T22:41:21.377Z,9.00
2018-01-24T22:43:49.017Z,9.10
2018-01-24T22:46:17.425Z,8.90
2018-01-24T22:48:48.625Z,8.70
2018-01-24T22:51:21.808Z,8.90
2018-01-24T22:53:49.557Z,8.50
2018-01-24T22:56:17.197Z,8.50
2018-01-24T22:58:44.858Z,8.20
2018-01-24T23:01:12.464Z,8.20
2018-01-24T23:03:40.942Z,8.20
2018-01-24T23:06:08.550Z,8.20
2018-01-24T23:08:36.205Z,8.20
2018-01-24T23:11:03.983Z,8.20
2018-01-24T23:13:32.195Z,8.20
2018-01-24T23:15:59.837Z,8.10
2018-01-24T23:18:27.643Z,8.10
2018-01-24T23:20:55.293Z,8.50
2018-01-24T23:23:23.394Z,8.30
2018-01-24T23:25:51.832Z,8.40
2018-01-24T23:28:20.271Z,8.30
2018-01-24T23:30:48.474Z,8.40
2018-01-24T23:33:16.141Z,8.50
2018-01-24T23:35:43.780Z,8.30
2018-01-24T23:38:11.414Z,8.40
2018-01-24T23:40:39.056Z,8.10
2018-01-24T23:43:06.757Z,8.20
2018-01-24T23:45:34.401Z,8.10
2018-01-24T23:48:02.033Z,8.10
2018-01-24T23:50:29.685Z,8.20
2018-01-24T23:52:57.296Z,8.20
2018-01-24T23:55:24.944Z,8.00
2018-01-24T23:57:53.045Z,8.00
